Time;durP1;ratioP1;P1;durP2;ratioP2;P2;SDS_P1;SDS_P2;PMS_P1;PMS_P2;Temp;Humidity;BMP_temperature;BMP_pressure;BME280_temperature;BME280_humidity;BME280_pressure;Samples;Min_cycle;Max_cycle;Signal;HPM_P1;HPM_P2
2022/06/28 00:00:06;;;;;;;18.60;16.80;;;13.30;99.90;;;;;;5013355;28;20489;-30
2022/06/28 00:02:31;;;;;;;19.15;17.25;;;13.30;99.90;;;;;;5021807;28;20037;-32
2022/06/28 00:04:57;;;;;;;19.35;17.48;;;13.30;99.90;;;;;;5030814;28;20523;-31
2022/06/28 00:07:23;;;;;;;17.77;16.02;;;13.30;99.90;;;;;;5033174;28;20640;-30
2022/06/28 00:09:49;;;;;;;18.83;16.90;;;13.30;99.90;;;;;;5032874;28;20037;-30
2022/06/28 00:12:14;;;;;;;19.50;17.60;;;13.30;99.90;;;;;;5032892;28;20121;-29
2022/06/28 00:17:24;;;;;;;22.50;18.23;;;13.20;99.90;;;;;;5032537;28;20045;-31
2022/06/28 00:19:50;;;;;;;19.80;17.83;;;13.20;99.90;;;;;;5032274;28;20044;-30
2022/06/28 00:22:16;;;;;;;20.10;18.13;;;13.20;99.90;;;;;;5032491;28;20535;-31
2022/06/28 00:24:41;;;;;;;19.42;17.60;;;13.20;99.90;;;;;;5032539;28;20029;-30
2022/06/28 00:27:07;;;;;;;17.35;15.82;;;13.20;99.90;;;;;;5032190;28;20121;-30
2022/06/28 00:29:33;;;;;;;20.38;18.15;;;13.20;99.90;;;;;;5030981;28;20045;-31
2022/06/28 00:31:59;;;;;;;18.77;16.98;;;13.20;99.90;;;;;;5032467;28;20042;-30
2022/06/28 00:34:24;;;;;;;19.38;17.35;;;13.20;99.90;;;;;;5032123;28;20407;-30
2022/06/28 00:36:50;;;;;;;19.05;17.15;;;13.20;99.90;;;;;;5030658;28;20045;-30
2022/06/28 00:39:16;;;;;;;19.73;17.70;;;13.20;99.90;;;;;;5032242;28;20111;-33
2022/06/28 00:41:42;;;;;;;20.25;17.92;;;13.20;99.90;;;;;;5023726;28;20452;-33
2022/06/28 00:44:11;;;;;;;17.83;16.02;;;13.10;99.90;;;;;;5026245;28;20469;-34
2022/06/28 00:46:37;;;;;;;19.17;17.30;;;13.10;99.90;;;;;;5029787;28;20034;-33
2022/06/28 00:49:04;;;;;;;18.58;16.80;;;13.10;99.90;;;;;;5030801;28;20052;-35
2022/06/28 00:51:30;;;;;;;25.25;18.98;;;13.10;99.90;;;;;;5030737;28;20140;-33
2022/06/28 00:53:56;;;;;;;19.73;17.73;;;13.00;99.90;;;;;;5030821;28;20052;-32
2022/06/28 00:56:22;;;;;;;19.30;17.30;;;13.00;99.90;;;;;;5028673;28;20131;-33
2022/06/28 00:58:48;;;;;;;20.75;18.88;;;13.00;99.90;;;;;;5029194;28;20068;-32
2022/06/28 01:01:14;;;;;;;20.90;18.77;;;13.00;99.90;;;;;;5021469;28;20444;-34
2022/06/28 01:03:41;;;;;;;19.08;17.33;;;12.90;99.90;;;;;;5026013;28;20484;-37
2022/06/28 01:06:07;;;;;;;19.35;17.45;;;12.90;99.90;;;;;;5021416;28;20504;-34
2022/06/28 01:08:33;;;;;;;18.90;16.95;;;12.90;99.90;;;;;;5022675;28;20190;-32
2022/06/28 01:11:18;;;;;;;19.13;17.23;;;12.90;99.90;;;;;;5017980;28;20041;-32
2022/06/28 01:13:47;;;;;;;21.02;18.08;;;12.90;99.90;;;;;;5022195;28;20591;-32
2022/06/28 01:16:13;;;;;;;18.88;17.17;;;12.90;99.90;;;;;;5018392;28;20041;-34
2022/06/28 01:18:40;;;;;;;19.13;17.33;;;12.90;99.90;;;;;;5026064;28;20175;-32
2022/06/28 01:21:06;;;;;;;19.13;17.23;;;12.80;99.90;;;;;;5010616;28;20125;-30
2022/06/28 01:23:32;;;;;;;20.58;18.58;;;12.80;99.90;;;;;;5025414;28;20049;-31
2022/06/28 01:25:58;;;;;;;19.08;17.17;;;12.80;99.90;;;;;;5022621;28;20634;-33
2022/06/28 01:28:24;;;;;;;20.17;17.95;;;12.80;99.90;;;;;;5023985;28;20029;-32
2022/06/28 01:30:50;;;;;;;19.02;17.10;;;12.80;99.90;;;;;;5021173;28;20029;-32
2022/06/28 01:33:16;;;;;;;18.73;16.83;;;12.70;99.90;;;;;;5020263;28;20124;-31
2022/06/28 01:35:42;;;;;;;17.55;15.95;;;12.70;99.90;;;;;;5028971;28;20049;-33
2022/06/28 01:38:10;;;;;;;17.63;15.93;;;12.70;99.90;;;;;;5029412;28;20562;-33
2022/06/28 01:40:36;;;;;;;18.48;16.67;;;12.70;99.90;;;;;;5021904;28;20473;-35
2022/06/28 01:43:02;;;;;;;16.77;15.18;;;12.60;99.90;;;;;;5022466;28;20128;-34
2022/06/28 01:45:29;;;;;;;19.60;17.60;;;12.60;99.90;;;;;;5024798;28;20112;-33
2022/06/28 01:47:55;;;;;;;18.17;16.35;;;12.50;99.90;;;;;;5029333;28;20051;-33
2022/06/28 01:50:21;;;;;;;16.60;14.95;;;12.50;99.90;;;;;;5025048;28;20469;-33
2022/06/28 01:52:47;;;;;;;16.95;15.45;;;12.40;99.90;;;;;;5011707;28;20104;-30
2022/06/28 01:55:13;;;;;;;16.33;14.88;;;12.40;99.90;;;;;;5010174;28;20408;-30
2022/06/28 01:57:39;;;;;;;18.63;16.83;;;12.30;99.90;;;;;;5011381;28;20037;-30
2022/06/28 02:00:08;;;;;;;18.05;16.20;;;12.30;99.90;;;;;;5011185;28;20042;-30
2022/06/28 02:02:34;;;;;;;17.60;15.82;;;12.30;99.90;;;;;;5029785;28;20102;-30
2022/06/28 02:05:00;;;;;;;17.30;15.60;;;12.30;99.90;;;;;;5012531;28;20504;-35
2022/06/28 02:07:26;;;;;;;16.75;15.05;;;12.20;99.90;;;;;;5028122;28;20045;-30
2022/06/28 02:09:52;;;;;;;18.70;16.88;;;12.20;99.90;;;;;;5031060;28;20041;-30
2022/06/28 02:12:18;;;;;;;18.17;16.38;;;12.20;99.90;;;;;;5031350;28;20072;-30
2022/06/28 02:14:44;;;;;;;18.23;16.33;;;12.10;99.90;;;;;;5030923;28;20382;-30
2022/06/28 02:17:11;;;;;;;17.75;16.08;;;12.10;99.90;;;;;;5031141;28;20044;-30
2022/06/28 02:19:37;;;;;;;18.67;16.80;;;12.10;99.90;;;;;;5030690;28;20096;-30
2022/06/28 02:22:03;;;;;;;19.27;17.27;;;12.10;99.90;;;;;;5030677;28;20073;-31
2022/06/28 02:24:30;;;;;;;21.65;19.38;;;12.10;99.90;;;;;;5030929;28;20036;-30
2022/06/28 02:26:55;;;;;;;20.15;17.52;;;12.10;99.90;;;;;;5031008;28;20077;-30
2022/06/28 02:29:21;;;;;;;21.60;18.73;;;12.10;99.90;;;;;;5030897;28;20548;-30
2022/06/28 02:31:48;;;;;;;19.67;17.73;;;12.10;99.90;;;;;;5031057;28;20120;-30
2022/06/28 02:40:21;;;;;;;23.08;20.67;;;12.20;99.90;;;;;;5029244;28;20381;-30
2022/06/28 02:42:28;;;;;;;23.60;21.25;;;12.20;99.90;;;;;;5030524;28;20041;-30
2022/06/28 02:44:54;;;;;;;23.55;20.83;;;12.20;99.90;;;;;;5030511;28;20046;-30
2022/06/28 02:47:19;;;;;;;24.05;20.90;;;12.30;99.90;;;;;;5030897;28;20045;-30
2022/06/28 02:49:45;;;;;;;23.08;20.80;;;12.30;99.90;;;;;;5029596;28;20110;-30
2022/06/28 02:52:11;;;;;;;23.98;21.27;;;12.30;99.90;;;;;;5034420;28;20045;-30
2022/06/28 02:54:37;;;;;;;22.98;20.42;;;12.40;99.90;;;;;;5033264;28;20095;-32
2022/06/28 02:57:02;;;;;;;21.92;19.73;;;12.40;99.90;;;;;;5002728;28;20103;-32
2022/06/28 02:59:28;;;;;;;23.17;20.67;;;12.40;99.90;;;;;;5020625;28;20065;-32
2022/06/28 03:01:54;;;;;;;23.02;20.75;;;12.40;99.90;;;;;;5017142;28;20110;-33
2022/06/28 03:04:19;;;;;;;22.40;20.25;;;12.40;99.90;;;;;;5032405;28;20065;-33
2022/06/28 03:06:45;;;;;;;23.25;20.67;;;12.40;99.90;;;;;;5019137;28;20054;-33
2022/06/28 03:09:11;;;;;;;22.80;20.50;;;12.40;99.90;;;;;;5020811;28;20037;-34
2022/06/28 03:11:37;;;;;;;25.95;21.85;;;12.40;99.90;;;;;;5025412;28;20116;-30
2022/06/28 03:14:02;;;;;;;24.23;21.73;;;12.40;99.90;;;;;;5033624;28;20048;-30
2022/06/28 03:16:28;;;;;;;23.13;20.73;;;12.40;99.90;;;;;;5032402;28;20056;-30
2022/06/28 03:18:54;;;;;;;24.67;22.00;;;12.30;99.90;;;;;;5033836;28;20405;-30
2022/06/28 03:21:19;;;;;;;25.23;22.10;;;12.30;99.90;;;;;;5033240;28;20049;-30
2022/06/28 03:23:45;;;;;;;22.73;20.35;;;12.30;99.90;;;;;;5033377;28;20120;-30
2022/06/28 03:26:11;;;;;;;24.25;21.77;;;12.30;99.90;;;;;;5032738;28;20037;-30
2022/06/28 03:28:37;;;;;;;25.83;23.13;;;12.30;99.90;;;;;;5033356;28;20328;-31
2022/06/28 03:31:02;;;;;;;26.13;23.40;;;12.20;99.90;;;;;;5031076;28;20077;-30
2022/06/28 03:33:28;;;;;;;25.67;22.83;;;12.30;99.90;;;;;;5013510;28;20038;-30
2022/06/28 03:35:54;;;;;;;27.02;21.98;;;12.20;99.90;;;;;;5024305;28;20045;-30
2022/06/28 03:38:19;;;;;;;26.20;23.27;;;12.20;99.90;;;;;;5017416;28;20041;-30
2022/06/28 03:40:45;;;;;;;29.60;22.70;;;12.20;99.90;;;;;;5033239;28;20037;-30
2022/06/28 03:43:11;;;;;;;24.58;21.98;;;12.30;99.90;;;;;;5033194;28;20045;-30
2022/06/28 03:45:36;;;;;;;25.67;23.00;;;12.20;99.90;;;;;;5032951;28;20041;-31
2022/06/28 03:48:02;;;;;;;25.60;22.75;;;12.30;99.90;;;;;;5033397;28;20045;-30
2022/06/28 03:50:28;;;;;;;26.08;23.27;;;12.30;99.90;;;;;;5032957;28;20069;-29
2022/06/28 03:52:54;;;;;;;24.70;21.83;;;12.30;99.90;;;;;;5031591;28;20338;-29
2022/06/28 03:55:19;;;;;;;26.40;22.95;;;12.30;99.90;;;;;;5033003;28;20132;-29
2022/06/28 03:57:45;;;;;;;25.15;22.50;;;12.30;99.90;;;;;;5033239;28;20631;-29
2022/06/28 04:00:12;;;;;;;29.17;23.88;;;12.30;99.90;;;;;;5033147;28;20045;-29
2022/06/28 04:02:38;;;;;;;25.70;23.05;;;12.30;99.90;;;;;;5032333;28;20037;-30
2022/06/28 04:05:03;;;;;;;27.33;24.52;;;12.30;99.90;;;;;;5032854;28;20040;-32
2022/06/28 04:07:29;;;;;;;25.83;23.17;;;12.30;99.90;;;;;;5032812;28;20103;-29
2022/06/28 04:09:55;;;;;;;27.90;24.30;;;12.30;99.90;;;;;;5033233;28;20388;-30
2022/06/28 04:12:21;;;;;;;26.65;22.63;;;12.30;99.90;;;;;;5032728;28;20040;-30
2022/06/28 04:14:46;;;;;;;26.55;23.77;;;12.30;99.90;;;;;;5031640;28;20041;-29
2022/06/28 04:17:12;;;;;;;26.17;23.38;;;12.30;99.90;;;;;;5032810;28;20276;-30
2022/06/28 04:19:38;;;;;;;25.02;22.38;;;12.40;99.90;;;;;;5032388;28;20069;-30
2022/06/28 04:22:05;;;;;;;26.75;23.27;;;12.40;99.90;;;;;;5032705;28;20518;-30
2022/06/28 04:24:31;;;;;;;28.48;24.77;;;12.40;99.90;;;;;;5032571;28;20150;-29
2022/06/28 04:26:57;;;;;;;27.75;24.65;;;12.30;99.90;;;;;;5032645;28;20238;-32
2022/06/28 04:29:22;;;;;;;26.88;24.08;;;12.40;99.90;;;;;;5027476;28;20491;-29
2022/06/28 04:31:48;;;;;;;27.05;24.17;;;12.40;99.90;;;;;;5019361;28;20069;-31
2022/06/28 04:34:14;;;;;;;28.25;24.35;;;12.40;99.90;;;;;;5032376;28;20045;-31
2022/06/28 04:36:40;;;;;;;29.27;24.85;;;12.50;99.90;;;;;;5032298;28;20484;-30
2022/06/28 04:39:05;;;;;;;29.35;24.60;;;12.50;99.90;;;;;;5032251;28;20067;-30
2022/06/28 04:41:31;;;;;;;28.52;25.38;;;12.50;99.90;;;;;;5022849;28;20074;-30
2022/06/28 04:43:57;;;;;;;29.90;25.65;;;12.60;99.90;;;;;;5012314;28;20124;-30
2022/06/28 04:46:23;;;;;;;29.77;26.52;;;12.60;99.90;;;;;;5024255;28;20477;-32
2022/06/28 04:48:49;;;;;;;32.53;25.70;;;12.60;99.90;;;;;;5024709;28;20611;-31
2022/06/28 04:51:15;;;;;;;34.03;28.38;;;12.60;99.90;;;;;;5032089;28;20098;-30
2022/06/28 04:53:42;;;;;;;31.73;26.98;;;12.70;99.90;;;;;;5031838;28;20083;-30
2022/06/28 04:56:09;;;;;;;31.15;26.98;;;12.80;99.90;;;;;;5015757;28;20098;-30
2022/06/28 04:58:35;;;;;;;32.67;24.33;;;12.90;99.90;;;;;;5031895;28;20109;-30
2022/06/28 05:01:01;;;;;;;27.70;24.50;;;13.00;99.90;;;;;;5020539;28;20049;-29
2022/06/28 05:03:27;;;;;;;29.20;23.70;;;13.10;99.90;;;;;;5030198;28;20038;-31
2022/06/28 05:05:53;;;;;;;26.75;23.10;;;13.10;99.90;;;;;;5019519;28;20030;-30
2022/06/28 05:08:19;;;;;;;27.35;23.42;;;13.20;99.90;;;;;;5031838;28;20040;-30
2022/06/28 05:10:45;;;;;;;26.80;22.55;;;13.20;99.90;;;;;;5031666;28;20495;-31
2022/06/28 05:13:10;;;;;;;25.60;22.83;;;13.30;99.90;;;;;;5015306;28;20041;-30
2022/06/28 05:15:36;;;;;;;25.38;22.58;;;13.40;99.90;;;;;;5030939;28;20037;-31
2022/06/28 05:18:02;;;;;;;22.80;20.35;;;13.40;99.90;;;;;;5006083;28;20056;-30
2022/06/28 05:20:28;;;;;;;22.42;20.02;;;13.40;99.90;;;;;;5022762;28;20507;-30
2022/06/28 05:22:54;;;;;;;23.85;20.92;;;13.40;99.90;;;;;;5031317;28;20034;-32
2022/06/28 05:25:20;;;;;;;23.63;20.25;;;13.40;99.90;;;;;;5026751;28;20033;-30
2022/06/28 05:27:45;;;;;;;22.80;20.27;;;13.50;99.90;;;;;;5024889;28;20435;-30
2022/06/28 05:30:11;;;;;;;23.42;20.75;;;13.50;99.90;;;;;;5030963;28;20037;-30
2022/06/28 05:32:37;;;;;;;24.65;21.05;;;13.60;99.90;;;;;;5027999;28;20041;-30
2022/06/28 05:35:05;;;;;;;24.23;20.65;;;13.60;99.90;;;;;;5031052;28;20116;-31
2022/06/28 05:37:31;;;;;;;25.33;19.23;;;13.70;99.90;;;;;;5030011;28;20048;-31
2022/06/28 05:39:57;;;;;;;22.88;19.63;;;13.80;99.90;;;;;;5022958;28;20048;-31
2022/06/28 05:42:23;;;;;;;21.73;19.45;;;13.80;99.90;;;;;;5030861;28;20041;-30
2022/06/28 05:44:49;;;;;;;20.55;18.15;;;14.00;99.90;;;;;;5029710;28;20037;-30
2022/06/28 05:47:15;;;;;;;21.73;19.27;;;14.10;99.90;;;;;;5018781;28;20388;-30
2022/06/28 05:49:40;;;;;;;21.67;18.42;;;14.20;99.90;;;;;;5029750;28;20029;-31
2022/06/28 05:52:07;;;;;;;20.95;17.45;;;14.30;99.90;;;;;;5029990;28;20053;-30
2022/06/28 05:54:33;;;;;;;24.27;17.00;;;14.30;99.90;;;;;;5030299;28;20076;-30
2022/06/28 05:57:00;;;;;;;18.83;16.05;;;14.40;99.90;;;;;;5030256;28;20044;-32
2022/06/28 05:59:27;;;;;;;18.60;16.48;;;14.50;99.90;;;;;;5029880;28;20041;-30
2022/06/28 06:01:55;;;;;;;18.70;15.35;;;14.60;99.90;;;;;;5029342;28;20056;-31
2022/06/28 06:04:22;;;;;;;18.15;16.25;;;14.70;99.90;;;;;;5031011;28;20037;-31
2022/06/28 06:06:48;;;;;;;19.70;17.55;;;14.70;99.90;;;;;;5030630;28;20064;-30
2022/06/28 06:09:14;;;;;;;18.67;15.88;;;14.80;99.90;;;;;;5030772;28;20041;-31
2022/06/28 06:11:40;;;;;;;16.67;14.68;;;14.90;99.90;;;;;;5030630;28;20080;-30
2022/06/28 06:14:06;;;;;;;19.30;15.82;;;15.00;99.90;;;;;;5030649;28;20041;-33
2022/06/28 06:16:32;;;;;;;18.33;13.88;;;15.20;99.90;;;;;;5029816;28;20052;-31
2022/06/28 06:18:58;;;;;;;15.68;12.25;;;15.20;99.90;;;;;;5031322;28;20041;-30
2022/06/28 06:21:23;;;;;;;16.00;13.05;;;15.30;99.90;;;;;;5030744;28;20050;-29
2022/06/28 06:23:49;;;;;;;16.83;13.20;;;15.30;99.90;;;;;;5029830;28;20033;-30
2022/06/28 06:26:15;;;;;;;17.35;13.70;;;15.50;99.90;;;;;;5031980;28;20452;-30
2022/06/28 06:28:40;;;;;;;16.85;13.13;;;15.50;99.90;;;;;;5033160;28;20380;-30
2022/06/28 06:31:09;;;;;;;15.52;12.15;;;15.60;99.90;;;;;;5017840;28;20045;-30
2022/06/28 06:33:35;;;;;;;13.82;12.30;;;15.70;99.90;;;;;;5033098;28;20037;-30
2022/06/28 06:36:02;;;;;;;14.85;11.93;;;15.80;99.90;;;;;;5015941;28;20046;-30
2022/06/28 06:38:28;;;;;;;13.40;11.88;;;15.90;99.90;;;;;;5014608;28;20089;-29
2022/06/28 06:40:55;;;;;;;14.25;12.00;;;16.00;99.90;;;;;;5014798;28;20038;-29
2022/06/28 06:43:22;;;;;;;15.23;11.95;;;16.10;99.90;;;;;;5022727;28;20447;-29
2022/06/28 06:45:47;;;;;;;13.85;11.13;;;16.10;99.90;;;;;;5034242;28;20037;-29
2022/06/28 06:48:13;;;;;;;14.98;13.23;;;16.20;99.90;;;;;;5013476;28;20122;-29
2022/06/28 06:50:39;;;;;;;13.75;12.27;;;16.30;99.90;;;;;;5034454;28;20057;-30
2022/06/28 06:53:05;;;;;;;14.63;11.48;;;16.30;99.90;;;;;;5034007;28;20492;-30
2022/06/28 06:55:31;;;;;;;13.30;11.90;;;16.50;99.90;;;;;;5020140;28;20072;-30
2022/06/28 06:57:56;;;;;;;15.25;11.63;;;16.60;99.90;;;;;;5014449;28;20046;-30
2022/06/28 07:00:22;;;;;;;14.82;10.52;;;16.70;99.90;;;;;;5030586;28;20033;-30
2022/06/28 07:02:48;;;;;;;14.90;10.70;;;16.80;99.90;;;;;;5033924;28;20374;-30
2022/06/28 07:05:14;;;;;;;16.70;10.68;;;16.90;99.90;;;;;;5033809;28;20128;-30
2022/06/28 07:07:40;;;;;;;13.45;11.40;;;16.90;99.90;;;;;;5034040;28;20038;-29
2022/06/28 07:10:06;;;;;;;15.23;11.48;;;16.90;99.90;;;;;;5032713;28;20033;-30
2022/06/28 07:12:32;;;;;;;15.85;11.10;;;17.00;99.90;;;;;;5032674;28;20124;-30
2022/06/28 07:14:58;;;;;;;13.65;10.82;;;17.10;99.90;;;;;;5030541;28;20125;-28
2022/06/28 07:17:23;;;;;;;11.88;10.65;;;17.10;99.90;;;;;;5026485;28;20406;-33
2022/06/28 07:19:49;;;;;;;11.80;10.65;;;17.20;99.90;;;;;;5023810;28;20040;-32
2022/06/28 07:22:15;;;;;;;14.07;10.18;;;17.30;99.90;;;;;;5024770;28;20044;-32
2022/06/28 07:24:41;;;;;;;11.80;9.73;;;17.50;99.90;;;;;;5020286;28;20029;-33
2022/06/28 07:27:06;;;;;;;13.25;9.88;;;17.70;99.90;;;;;;5022175;28;20187;-33
2022/06/28 07:29:32;;;;;;;15.95;10.35;;;17.80;99.90;;;;;;5018256;28;20033;-32
2022/06/28 07:31:58;;;;;;;11.57;9.48;;;18.00;99.90;;;;;;5019548;28;20044;-34
2022/06/28 07:34:24;;;;;;;13.25;9.50;;;18.20;99.90;;;;;;5025551;28;20033;-32
2022/06/28 07:36:50;;;;;;;12.65;9.15;;;18.30;99.90;;;;;;5028069;28;20049;-32
2022/06/28 07:39:15;;;;;;;11.02;8.30;;;18.40;99.90;;;;;;5031788;28;20033;-32
2022/06/28 07:41:41;;;;;;;9.60;8.50;;;18.50;99.90;;;;;;5031233;28;20041;-33
2022/06/28 07:44:07;;;;;;;10.38;7.10;;;18.70;99.90;;;;;;5028817;28;20037;-32
2022/06/28 07:46:33;;;;;;;8.95;7.55;;;18.80;99.90;;;;;;5031611;28;20520;-32
2022/06/28 07:48:58;;;;;;;12.48;7.32;;;19.00;99.90;;;;;;5020798;28;20042;-32
2022/06/28 07:54:09;;;;;;;9.25;6.78;;;19.00;99.90;;;;;;5024443;28;20251;-32
2022/06/28 07:56:35;;;;;;;8.63;6.60;;;19.10;99.90;;;;;;5018798;28;20046;-32
2022/06/28 07:59:01;;;;;;;9.88;6.97;;;19.20;99.90;;;;;;5018661;28;20118;-33
2022/06/28 08:01:26;;;;;;;10.48;6.63;;;19.30;99.90;;;;;;5017628;28;20056;-31
2022/06/28 08:03:52;;;;;;;10.60;5.65;;;19.60;99.90;;;;;;5019462;28;20077;-31
2022/06/28 08:06:18;;;;;;;9.48;5.68;;;19.60;99.90;;;;;;5012486;28;20038;-33
2022/06/28 08:08:44;;;;;;;7.90;5.50;;;19.60;99.90;;;;;;5016564;28;20044;-32
2022/06/28 08:11:10;;;;;;;8.93;6.13;;;19.70;99.90;;;;;;5014385;28;20065;-33
2022/06/28 08:13:37;;;;;;;7.80;5.70;;;20.00;99.90;;;;;;5025084;28;20041;-34
2022/06/28 08:16:04;;;;;;;7.57;5.00;;;20.20;99.90;;;;;;5016638;28;20068;-34
2022/06/28 08:18:30;;;;;;;7.82;5.47;;;20.30;99.90;;;;;;5018649;28;20096;-32
2022/06/28 08:20:55;;;;;;;7.00;4.55;;;20.50;99.90;;;;;;5012851;28;20460;-32
2022/06/28 08:23:21;;;;;;;6.13;4.22;;;20.70;99.90;;;;;;5015554;28;20485;-32
2022/06/28 08:25:47;;;;;;;9.68;4.25;;;21.00;99.90;;;;;;5015837;28;20030;-33
2022/06/28 08:28:14;;;;;;;7.25;4.38;;;21.20;99.90;;;;;;5018305;28;20108;-34
2022/06/28 08:30:41;;;;;;;7.07;4.45;;;21.40;99.90;;;;;;5025792;28;20105;-32
2022/06/28 08:33:07;;;;;;;6.75;4.10;;;21.50;99.90;;;;;;5019115;28;20081;-33
2022/06/28 08:35:34;;;;;;;6.72;3.67;;;21.40;99.90;;;;;;5013459;28;20103;-32
2022/06/28 08:38:00;;;;;;;8.20;3.70;;;21.40;99.90;;;;;;5022511;28;20046;-33
2022/06/28 08:40:27;;;;;;;6.28;2.95;;;21.10;99.90;;;;;;5027948;28;20466;-32
2022/06/28 08:42:55;;;;;;;6.72;3.22;;;20.80;99.90;;;;;;5023935;28;20046;-32
2022/06/28 08:45:23;;;;;;;7.93;4.00;;;20.90;99.90;;;;;;5024314;28;20037;-32
2022/06/28 08:47:53;;;;;;;5.72;2.95;;;21.10;99.90;;;;;;5023520;28;20489;-33
2022/06/28 08:50:37;;;;;;;5.95;3.00;;;21.20;99.90;;;;;;5026305;28;20116;-32
2022/06/28 08:53:04;;;;;;;;;;;21.50;99.90;;;;;;5019565;28;20628;-33
2022/06/28 08:55:31;;;;;;;6.70;2.75;;;21.30;99.90;;;;;;5015524;28;20372;-33
2022/06/28 08:57:59;;;;;;;6.25;2.10;;;21.40;99.90;;;;;;5023082;28;20101;-33
2022/06/28 09:00:25;;;;;;;7.97;2.47;;;21.40;99.90;;;;;;5026802;28;20044;-34
2022/06/28 09:02:52;;;;;;;6.32;2.20;;;21.50;99.90;;;;;;5024315;28;20037;-32
2022/06/28 09:05:20;;;;;;;4.03;2.10;;;21.80;99.90;;;;;;5026828;28;20041;-32
2022/06/28 09:07:46;;;;;;;5.78;2.03;;;22.00;99.90;;;;;;5024201;28;20041;-32
2022/06/28 09:10:12;;;;;;;6.03;2.58;;;22.00;99.90;;;;;;5026930;28;20037;-33
2022/06/28 09:12:39;;;;;;;8.02;2.50;;;22.20;99.90;;;;;;5015324;28;20041;-32
2022/06/28 09:15:05;;;;;;;7.45;2.03;;;22.10;99.90;;;;;;5010713;28;20042;-33
2022/06/28 09:17:33;;;;;;;4.97;2.33;;;22.20;99.90;;;;;;5017812;28;20701;-32
2022/06/28 09:20:07;;;;;;;6.10;2.40;;;22.10;99.90;;;;;;5024488;28;20140;-32
2022/06/28 09:22:39;;;;;;;4.72;1.67;;;22.40;99.90;;;;;;5021097;28;20096;-33
2022/06/28 09:25:12;;;;;;;3.78;2.05;;;22.60;99.90;;;;;;5027065;28;20041;-33
2022/06/28 09:27:40;;;;;;;4.80;1.75;;;22.80;99.00;;;;;;5026161;28;20115;-33
2022/06/28 09:30:10;;;;;;;4.70;1.90;;;23.00;99.90;;;;;;5018641;28;20041;-33
2022/06/28 09:32:37;;;;;;;3.58;1.88;;;23.20;99.90;;;;;;5021436;28;20350;-33
2022/06/28 09:35:11;;;;;;;4.32;2.60;;;23.30;99.90;;;;;;5022962;28;20041;-33
2022/06/28 09:37:56;;;;;;;5.35;2.50;;;23.20;97.70;;;;;;5020788;28;20040;-33
2022/06/28 09:40:31;;;;;;;3.15;1.92;;;23.20;99.90;;;;;;5027097;28;20385;-33
2022/06/28 09:43:16;;;;;;;4.20;1.98;;;23.40;99.90;;;;;;5024356;28;20386;-33
2022/06/28 09:45:46;;;;;;;3.63;2.22;;;23.80;95.00;;;;;;5020909;28;20397;-33
2022/06/28 09:48:16;;;;;;;3.13;1.85;;;24.00;99.50;;;;;;5023182;28;20042;-33
2022/06/28 09:50:42;;;;;;;4.93;2.00;;;24.20;96.70;;;;;;5027933;28;20033;-34
2022/06/28 09:53:14;;;;;;;3.63;1.52;;;24.40;98.30;;;;;;5015095;28;20042;-33
2022/06/28 09:55:40;;;;;;;3.92;1.60;;;24.40;93.70;;;;;;5022454;28;20396;-33
2022/06/28 09:58:07;;;;;;;4.03;1.55;;;24.60;95.40;;;;;;5026282;28;20065;-34
2022/06/28 10:00:35;;;;;;;4.40;1.73;;;24.70;94.20;;;;;;5031013;28;20248;-33
2022/06/28 10:03:02;;;;;;;3.08;1.80;;;24.70;93.10;;;;;;5031632;28;20048;-33
2022/06/28 10:05:28;;;;;;;7.50;2.63;;;25.00;92.00;;;;;;5028468;28;20511;-33
2022/06/28 10:07:53;;;;;;;3.45;1.90;;;25.10;90.40;;;;;;5027116;28;20037;-33
2022/06/28 10:10:22;;;;;;;3.90;1.90;;;25.10;80.00;;;;;;5029291;28;20044;-33
2022/06/28 10:15:47;;;;;;;4.13;1.83;;;25.10;83.90;;;;;;5025300;28;20524;-33
2022/06/28 10:18:20;;;;;;;4.45;1.60;;;25.40;83.20;;;;;;5018777;28;20168;-33
2022/06/28 10:20:47;;;;;;;4.78;1.88;;;25.80;78.50;;;;;;5032063;28;20454;-34
2022/06/28 10:23:37;;;;;;;5.55;2.05;;;25.70;75.30;;;;;;5029865;28;20042;-33
2022/06/28 10:26:14;;;;;;;4.68;1.92;;;25.40;60.20;;;;;;5030957;28;20052;-34
2022/06/28 10:28:59;;;;;;;4.05;1.80;;;25.30;61.60;;;;;;5020331;28;20096;-32
2022/06/28 10:31:25;;;;;;;3.72;1.70;;;25.50;67.20;;;;;;5025437;28;20489;-33
2022/06/28 10:34:02;;;;;;;2.75;1.63;;;24.90;68.90;;;;;;5036079;28;20033;-33
2022/06/28 10:36:50;;;;;;;2.33;1.35;;;24.50;70.00;;;;;;5032384;28;20029;-33
2022/06/28 10:39:20;;;;;;;2.75;1.30;;;24.70;73.50;;;;;;5028527;28;20045;-34
2022/06/28 10:41:50;;;;;;;2.53;1.45;;;24.80;67.30;;;;;;5036278;28;20112;-34
2022/06/28 10:44:20;;;;;;;4.47;1.58;;;25.10;61.30;;;;;;5026716;28;20393;-36
2022/06/28 10:47:16;;;;;;;4.93;1.75;;;25.20;65.60;;;;;;5025993;28;20087;-33
2022/06/28 10:49:42;;;;;;;2.63;1.33;;;25.20;58.50;;;;;;5019310;28;20048;-33
2022/06/28 10:52:14;;;;;;;3.85;1.50;;;25.00;63.40;;;;;;5029031;28;20490;-33
2022/06/28 10:54:56;;;;;;;7.22;2.08;;;25.10;73.90;;;;;;5028995;28;20657;-34
2022/06/28 10:57:28;;;;;;;2.22;1.30;;;25.50;67.40;;;;;;5029468;28;20041;-33
2022/06/28 10:59:55;;;;;;;3.80;1.50;;;25.80;62.30;;;;;;5031658;28;20042;-34
2022/06/28 11:02:22;;;;;;;3.20;1.70;;;25.60;59.70;;;;;;5028575;28;20559;-33
2022/06/28 11:05:05;;;;;;;4.05;1.27;;;25.10;60.00;;;;;;5018983;28;20033;-34
2022/06/28 11:07:34;;;;;;;4.47;1.80;;;25.00;58.70;;;;;;5023249;28;20033;-35
2022/06/28 11:09:59;;;;;;;3.35;1.55;;;25.00;60.50;;;;;;5021694;28;20061;-33
2022/06/28 11:12:29;;;;;;;3.13;1.55;;;25.20;60.70;;;;;;5018149;28;20038;-33
2022/06/28 11:15:04;;;;;;;4.60;1.65;;;25.70;58.50;;;;;;5021392;28;20091;-33
2022/06/28 11:17:32;;;;;;;3.60;1.60;;;26.10;58.00;;;;;;5026628;28;20112;-33
2022/06/28 11:20:01;;;;;;;4.78;1.50;;;26.60;58.10;;;;;;5031272;28;20049;-32
2022/06/28 11:22:28;;;;;;;3.97;1.40;;;26.90;54.60;;;;;;5031997;28;20045;-33
2022/06/28 11:24:55;;;;;;;5.30;1.42;;;27.00;54.30;;;;;;5028286;28;20049;-33
2022/06/28 11:27:22;;;;;;;4.90;1.65;;;27.20;55.20;;;;;;5031955;28;20040;-34
2022/06/28 11:29:55;;;;;;;3.75;1.48;;;27.60;56.30;;;;;;5024880;28;20033;-33
2022/06/28 11:32:26;;;;;;;3.03;1.60;;;27.50;53.70;;;;;;5019335;28;20033;-33
2022/06/28 11:35:03;;;;;;;4.53;1.75;;;27.50;54.20;;;;;;5029630;28;20037;-34
2022/06/28 11:37:30;;;;;;;3.75;1.42;;;27.80;54.20;;;;;;5016379;28;20112;-33
2022/06/28 11:40:00;;;;;;;3.22;1.40;;;28.00;51.20;;;;;;5023440;28;20096;-34
2022/06/28 11:42:27;;;;;;;3.95;1.30;;;27.70;49.90;;;;;;5029104;28;20048;-33
2022/06/28 11:44:54;;;;;;;3.88;1.45;;;27.50;50.20;;;;;;5029158;28;20034;-34
2022/06/28 11:47:21;;;;;;;3.83;1.60;;;27.50;50.00;;;;;;5021178;28;20030;-34
2022/06/28 11:50:11;;;;;;;5.03;1.52;;;27.30;49.40;;;;;;5028591;28;20041;-33
2022/06/28 11:52:49;;;;;;;4.30;1.40;;;27.70;49.20;;;;;;5024122;28;20084;-34
2022/06/28 11:55:16;;;;;;;4.03;1.35;;;27.70;49.10;;;;;;5024854;28;20096;-33
2022/06/28 11:57:41;;;;;;;2.45;1.20;;;28.00;51.10;;;;;;5025592;28;20077;-34
2022/06/28 12:00:08;;;;;;;5.43;1.17;;;28.20;50.30;;;;;;5022647;28;20575;-33
2022/06/28 12:02:40;;;;;;;4.00;1.48;;;28.40;48.70;;;;;;5019505;28;20076;-34
2022/06/28 12:05:06;;;;;;;;;;;28.40;46.80;;;;;;5016653;28;20143;-34
2022/06/28 12:07:37;;;;;;;4.57;1.45;;;27.90;44.20;;;;;;5022708;28;19968;-35
2022/06/28 12:10:04;;;;;;;2.45;1.20;;;28.00;48.30;;;;;;5030638;28;20029;-35
2022/06/28 12:12:29;;;;;;;3.13;1.20;;;28.00;47.30;;;;;;5021904;28;20048;-34
2022/06/28 12:14:57;;;;;;;2.78;1.10;;;27.60;47.40;;;;;;5027885;28;20144;-33
2022/06/28 12:17:24;;;;;;;5.75;1.50;;;27.90;48.60;;;;;;5024488;28;20481;-33
2022/06/28 12:19:50;;;;;;;3.75;1.35;;;27.90;48.60;;;;;;5025951;28;20496;-35
2022/06/28 12:22:23;;;;;;;3.03;1.35;;;27.90;47.90;;;;;;5026821;28;20052;-33
2022/06/28 12:24:53;;;;;;;5.82;1.42;;;27.50;46.80;;;;;;5016439;28;20029;-35
2022/06/28 12:27:21;;;;;;;2.80;1.20;;;27.60;47.80;;;;;;5019215;28;20042;-33
2022/06/28 12:29:48;;;;;;;4.65;1.20;;;27.30;46.10;;;;;;5024918;28;20448;-33
2022/06/28 12:32:14;;;;;;;3.25;1.30;;;26.90;46.50;;;;;;5011846;28;20030;-33
2022/06/28 12:34:40;;;;;;;6.10;1.60;;;26.60;46.40;;;;;;5012352;28;20075;-34
2022/06/28 12:37:07;;;;;;;2.08;1.20;;;26.70;46.80;;;;;;5021410;28;20396;-33
2022/06/28 12:39:33;;;;;;;3.55;1.42;;;26.90;48.70;;;;;;5018156;28;20073;-33
2022/06/28 12:41:59;;;;;;;4.65;1.40;;;27.10;48.00;;;;;;5020540;28;20472;-34
2022/06/28 12:44:24;;;;;;;4.28;1.42;;;27.20;48.60;;;;;;5022920;28;20120;-35
2022/06/28 12:46:53;;;;;;;3.35;1.30;;;27.70;48.00;;;;;;5022694;28;20392;-34
2022/06/28 12:49:22;;;;;;;3.03;1.13;;;28.20;46.60;;;;;;5021646;28;20033;-33